Bonao, Dominican Republic
Current Conditions -  °F | °C
As of 8:00 PM on Wednesday 22 Oct 2014 (Local Time) from MDST Reporting Station
Scattered Clouds Scattered Clouds  
Wind Chill: 79°   Ceiling: Unl
Heat Index: 82°   Visibility: 6mi
Dew Point: 72°   Wind: 6mph
Humidity: 78%   Direction: 150°SSE
Pressure: 29.88"   Gusts: NA
Location:  18.95°N, 70.41°W
Report Text: MDST 230000Z 15005KT 9999 FEW020 SCT300 26/22 Q1012
Loading
Personal Weather Stations






























Interactive Weather Map
Tropical Storm Tracking
New forecast layout! Learn more

10-Day Weather Forecast

Advertisements
Track Severe Weather on mobile